CheckWX is a tool to help pilots better visualize weather data.  It is not intended as a substitute for an official pre-flight weather briefing.

12:52:29 UTC

KLRJ METAR
Le Mars Municipal Airport
Le Mars, Iowa, USA
Current

17 mins ago

KLRJ 161235Z AUTO 33004KT 10SM OVC019 04/01 A3019 RMK AO2
Observed
Oct-16 @ 12:35 UTC
Wind
  • 330° at 4 KTS
Visibility
10 SM
Flight Rules
MVFR
Cloud Levels
  • Overcast at 1,900' AGL
Temperature
C / 39°F
Dewpoint
C / 34°F
Humidity
81%
Altimeter
30.19" Hg
Pressure
1022.32 hPa
Previous

37 mins ago

KLRJ 161215Z AUTO 34005G12KT 10SM OVC018 04/01 A3019 RMK AO2
Observed
Oct-16 @ 12:15 UTC
Wind
  • 340° at 5 KTS
  • Gusting to 12 KTS
Visibility
10 SM
Flight Rules
MVFR
Cloud Levels
  • Overcast at 1,800' AGL
Temperature
C / 39°F
Dewpoint
C / 34°F
Humidity
81%
Altimeter
30.19" Hg
Pressure
1022.32 hPa
Previous

57 mins ago

KLRJ 161155Z AUTO 31009KT 10SM OVC018 04/01 A3019 RMK AO2
Observed
Oct-16 @ 11:55 UTC
Wind
  • 310° at 9 KTS
Visibility
10 SM
Flight Rules
MVFR
Cloud Levels
  • Overcast at 1,800' AGL
Temperature
C / 39°F
Dewpoint
C / 34°F
Humidity
81%
Altimeter
30.19" Hg
Pressure
1022.32 hPa